sensor_id;sensor_type;location;lat;lon;timestamp;P1;durP1;ratioP1;P2;durP2;ratioP2
28822;SDS011;15961;54.678;9.110;2023-08-01T00:00:56;10.55;;;4.13;;
28822;SDS011;15961;54.678;9.110;2023-08-01T00:03:22;7.13;;;4.00;;
28822;SDS011;15961;54.678;9.110;2023-08-01T00:05:47;7.95;;;4.13;;
28822;SDS011;15961;54.678;9.110;2023-08-01T00:08:12;7.15;;;3.92;;
28822;SDS011;15961;54.678;9.110;2023-08-01T00:10:39;6.88;;;4.20;;
28822;SDS011;15961;54.678;9.110;2023-08-01T00:13:05;8.07;;;4.85;;
28822;SDS011;15961;54.678;9.110;2023-08-01T00:15:30;14.48;;;4.05;;
28822;SDS011;15961;54.678;9.110;2023-08-01T00:17:55;5.18;;;3.20;;
28822;SDS011;15961;54.678;9.110;2023-08-01T00:20:20;9.80;;;3.70;;
28822;SDS011;15961;54.678;9.110;2023-08-01T00:22:46;5.97;;;3.67;;
28822;SDS011;15961;54.678;9.110;2023-08-01T00:25:11;8.23;;;3.70;;
28822;SDS011;15961;54.678;9.110;2023-08-01T00:27:36;11.15;;;5.15;;
28822;SDS011;15961;54.678;9.110;2023-08-01T00:30:02;7.70;;;3.58;;
28822;SDS011;15961;54.678;9.110;2023-08-01T00:32:27;11.85;;;4.68;;
28822;SDS011;15961;54.678;9.110;2023-08-01T00:34:52;11.15;;;4.18;;
28822;SDS011;15961;54.678;9.110;2023-08-01T00:37:18;9.98;;;4.63;;
28822;SDS011;15961;54.678;9.110;2023-08-01T00:39:43;6.80;;;3.95;;
28822;SDS011;15961;54.678;9.110;2023-08-01T00:42:08;7.95;;;4.13;;
28822;SDS011;15961;54.678;9.110;2023-08-01T00:44:34;6.75;;;3.75;;
28822;SDS011;15961;54.678;9.110;2023-08-01T00:46:59;7.03;;;4.03;;
28822;SDS011;15961;54.678;9.110;2023-08-01T00:49:24;8.20;;;4.32;;
28822;SDS011;15961;54.678;9.110;2023-08-01T00:51:50;9.55;;;4.80;;
28822;SDS011;15961;54.678;9.110;2023-08-01T00:54:15;8.80;;;4.15;;
28822;SDS011;15961;54.678;9.110;2023-08-01T00:56:41;12.27;;;4.07;;
28822;SDS011;15961;54.678;9.110;2023-08-01T00:59:07;5.95;;;3.83;;
28822;SDS011;15961;54.678;9.110;2023-08-01T01:01:32;9.10;;;3.70;;
28822;SDS011;15961;54.678;9.110;2023-08-01T01:03:57;8.25;;;3.30;;
28822;SDS011;15961;54.678;9.110;2023-08-01T01:06:32;6.50;;;4.07;;
28822;SDS011;15961;54.678;9.110;2023-08-01T01:08:59;5.60;;;3.90;;
28822;SDS011;15961;54.678;9.110;2023-08-01T01:11:25;7.82;;;3.85;;
28822;SDS011;15961;54.678;9.110;2023-08-01T01:13:50;6.15;;;3.50;;
28822;SDS011;15961;54.678;9.110;2023-08-01T01:16:19;7.78;;;3.70;;
28822;SDS011;15961;54.678;9.110;2023-08-01T01:18:45;7.75;;;3.30;;
28822;SDS011;15961;54.678;9.110;2023-08-01T01:21:10;10.43;;;4.38;;
28822;SDS011;15961;54.678;9.110;2023-08-01T01:23:35;8.00;;;3.90;;
28822;SDS011;15961;54.678;9.110;2023-08-01T01:26:01;7.47;;;4.07;;
28822;SDS011;15961;54.678;9.110;2023-08-01T01:28:27;7.20;;;3.58;;
28822;SDS011;15961;54.678;9.110;2023-08-01T01:30:53;8.00;;;3.90;;
28822;SDS011;15961;54.678;9.110;2023-08-01T01:33:18;6.50;;;3.72;;
28822;SDS011;15961;54.678;9.110;2023-08-01T01:35:44;9.35;;;3.92;;
28822;SDS011;15961;54.678;9.110;2023-08-01T01:38:09;10.05;;;4.40;;
28822;SDS011;15961;54.678;9.110;2023-08-01T01:40:34;13.90;;;4.55;;
28822;SDS011;15961;54.678;9.110;2023-08-01T01:43:00;12.55;;;4.38;;
28822;SDS011;15961;54.678;9.110;2023-08-01T01:45:26;6.38;;;3.58;;
28822;SDS011;15961;54.678;9.110;2023-08-01T01:47:51;11.35;;;5.00;;
28822;SDS011;15961;54.678;9.110;2023-08-01T01:50:16;7.45;;;3.85;;
28822;SDS011;15961;54.678;9.110;2023-08-01T01:52:43;8.73;;;3.85;;
28822;SDS011;15961;54.678;9.110;2023-08-01T01:55:08;7.25;;;4.15;;
28822;SDS011;15961;54.678;9.110;2023-08-01T01:57:33;8.75;;;4.03;;
28822;SDS011;15961;54.678;9.110;2023-08-01T02:00:01;7.18;;;4.00;;
28822;SDS011;15961;54.678;9.110;2023-08-01T02:02:27;9.43;;;4.80;;
28822;SDS011;15961;54.678;9.110;2023-08-01T02:04:53;7.72;;;4.70;;
28822;SDS011;15961;54.678;9.110;2023-08-01T02:07:18;11.27;;;5.32;;
28822;SDS011;15961;54.678;9.110;2023-08-01T02:09:43;9.13;;;5.35;;
28822;SDS011;15961;54.678;9.110;2023-08-01T02:12:08;10.68;;;4.80;;
28822;SDS011;15961;54.678;9.110;2023-08-01T02:14:35;14.75;;;5.90;;
28822;SDS011;15961;54.678;9.110;2023-08-01T02:17:01;15.68;;;5.88;;
28822;SDS011;15961;54.678;9.110;2023-08-01T02:19:26;9.40;;;5.47;;
28822;SDS011;15961;54.678;9.110;2023-08-01T02:21:51;13.25;;;5.97;;
28822;SDS011;15961;54.678;9.110;2023-08-01T02:24:17;14.27;;;6.10;;
28822;SDS011;15961;54.678;9.110;2023-08-01T02:26:43;11.75;;;5.85;;
28822;SDS011;15961;54.678;9.110;2023-08-01T02:29:08;11.25;;;7.15;;
28822;SDS011;15961;54.678;9.110;2023-08-01T02:31:33;15.80;;;7.50;;
28822;SDS011;15961;54.678;9.110;2023-08-01T02:34:00;9.80;;;6.00;;
28822;SDS011;15961;54.678;9.110;2023-08-01T02:36:25;12.05;;;6.15;;
28822;SDS011;15961;54.678;9.110;2023-08-01T02:38:50;11.00;;;6.28;;
28822;SDS011;15961;54.678;9.110;2023-08-01T02:41:16;12.27;;;6.50;;
28822;SDS011;15961;54.678;9.110;2023-08-01T02:43:41;18.15;;;5.93;;
28822;SDS011;15961;54.678;9.110;2023-08-01T02:46:06;12.65;;;6.30;;
28822;SDS011;15961;54.678;9.110;2023-08-01T02:48:31;11.18;;;6.20;;
28822;SDS011;15961;54.678;9.110;2023-08-01T02:51:00;8.35;;;5.32;;
28822;SDS011;15961;54.678;9.110;2023-08-01T02:53:26;11.00;;;5.65;;
28822;SDS011;15961;54.678;9.110;2023-08-01T02:55:51;10.55;;;5.28;;
28822;SDS011;15961;54.678;9.110;2023-08-01T02:58:16;10.48;;;4.90;;
28822;SDS011;15961;54.678;9.110;2023-08-01T03:00:42;9.10;;;5.25;;
28822;SDS011;15961;54.678;9.110;2023-08-01T03:03:07;10.38;;;5.13;;
28822;SDS011;15961;54.678;9.110;2023-08-01T03:05:35;8.45;;;4.55;;
28822;SDS011;15961;54.678;9.110;2023-08-01T03:08:00;9.82;;;4.68;;
28822;SDS011;15961;54.678;9.110;2023-08-01T03:10:26;7.88;;;4.95;;
28822;SDS011;15961;54.678;9.110;2023-08-01T03:12:51;7.55;;;4.50;;
28822;SDS011;15961;54.678;9.110;2023-08-01T03:15:16;6.75;;;3.92;;
28822;SDS011;15961;54.678;9.110;2023-08-01T03:17:42;7.57;;;4.78;;
28822;SDS011;15961;54.678;9.110;2023-08-01T03:20:07;7.70;;;4.13;;
28822;SDS011;15961;54.678;9.110;2023-08-01T03:22:35;7.88;;;4.22;;
28822;SDS011;15961;54.678;9.110;2023-08-01T03:25:04;6.43;;;4.22;;
28822;SDS011;15961;54.678;9.110;2023-08-01T03:27:32;9.48;;;4.28;;
28822;SDS011;15961;54.678;9.110;2023-08-01T03:29:58;9.20;;;4.53;;
28822;SDS011;15961;54.678;9.110;2023-08-01T03:32:23;11.35;;;3.92;;
28822;SDS011;15961;54.678;9.110;2023-08-01T03:34:51;9.50;;;5.15;;
28822;SDS011;15961;54.678;9.110;2023-08-01T03:37:17;8.93;;;4.10;;
28822;SDS011;15961;54.678;9.110;2023-08-01T03:39:43;6.53;;;4.07;;
28822;SDS011;15961;54.678;9.110;2023-08-01T03:42:08;10.13;;;4.22;;
28822;SDS011;15961;54.678;9.110;2023-08-01T03:44:33;7.80;;;3.63;;
28822;SDS011;15961;54.678;9.110;2023-08-01T03:46:59;7.03;;;4.00;;
28822;SDS011;15961;54.678;9.110;2023-08-01T03:49:26;8.63;;;4.22;;
28822;SDS011;15961;54.678;9.110;2023-08-01T03:51:52;10.65;;;4.70;;
28822;SDS011;15961;54.678;9.110;2023-08-01T03:54:17;9.05;;;4.13;;
28822;SDS011;15961;54.678;9.110;2023-08-01T03:56:42;9.93;;;4.28;;
28822;SDS011;15961;54.678;9.110;2023-08-01T03:59:13;9.10;;;4.55;;
28822;SDS011;15961;54.678;9.110;2023-08-01T04:01:38;6.80;;;3.65;;
28822;SDS011;15961;54.678;9.110;2023-08-01T04:04:04;9.40;;;4.35;;
28822;SDS011;15961;54.678;9.110;2023-08-01T04:06:31;6.90;;;3.85;;
28822;SDS011;15961;54.678;9.110;2023-08-01T04:08:57;8.30;;;3.97;;
28822;SDS011;15961;54.678;9.110;2023-08-01T04:11:22;13.00;;;4.28;;
28822;SDS011;15961;54.678;9.110;2023-08-01T04:13:47;10.27;;;4.75;;
28822;SDS011;15961;54.678;9.110;2023-08-01T04:16:13;10.18;;;4.50;;
28822;SDS011;15961;54.678;9.110;2023-08-01T04:18:38;16.38;;;5.20;;
28822;SDS011;15961;54.678;9.110;2023-08-01T04:21:03;10.80;;;3.80;;
28822;SDS011;15961;54.678;9.110;2023-08-01T04:23:29;7.90;;;3.58;;
28822;SDS011;15961;54.678;9.110;2023-08-01T04:25:54;7.63;;;4.03;;
28822;SDS011;15961;54.678;9.110;2023-08-01T04:28:19;9.60;;;3.55;;
28822;SDS011;15961;54.678;9.110;2023-08-01T04:30:51;9.52;;;3.95;;
28822;SDS011;15961;54.678;9.110;2023-08-01T04:33:16;7.90;;;4.15;;
28822;SDS011;15961;54.678;9.110;2023-08-01T04:35:42;7.63;;;4.07;;
28822;SDS011;15961;54.678;9.110;2023-08-01T04:38:07;7.28;;;3.63;;
28822;SDS011;15961;54.678;9.110;2023-08-01T04:40:33;11.60;;;3.85;;
28822;SDS011;15961;54.678;9.110;2023-08-01T04:43:00;7.95;;;3.67;;
28822;SDS011;15961;54.678;9.110;2023-08-01T04:45:26;7.88;;;3.65;;
28822;SDS011;15961;54.678;9.110;2023-08-01T04:47:51;7.60;;;3.70;;
28822;SDS011;15961;54.678;9.110;2023-08-01T04:50:16;6.10;;;3.13;;
28822;SDS011;15961;54.678;9.110;2023-08-01T04:52:44;7.82;;;3.42;;
28822;SDS011;15961;54.678;9.110;2023-08-01T04:55:10;5.78;;;3.20;;
28822;SDS011;15961;54.678;9.110;2023-08-01T04:57:35;5.65;;;3.03;;
28822;SDS011;15961;54.678;9.110;2023-08-01T05:00:01;5.18;;;2.70;;
28822;SDS011;15961;54.678;9.110;2023-08-01T05:02:26;8.43;;;2.97;;
28822;SDS011;15961;54.678;9.110;2023-08-01T05:04:51;5.88;;;3.08;;
28822;SDS011;15961;54.678;9.110;2023-08-01T05:07:17;11.38;;;3.38;;
28822;SDS011;15961;54.678;9.110;2023-08-01T05:09:42;6.20;;;3.03;;
28822;SDS011;15961;54.678;9.110;2023-08-01T05:12:07;4.18;;;2.53;;
28822;SDS011;15961;54.678;9.110;2023-08-01T05:14:34;7.43;;;3.35;;
28822;SDS011;15961;54.678;9.110;2023-08-01T05:16:59;7.55;;;3.00;;
28822;SDS011;15961;54.678;9.110;2023-08-01T05:19:24;5.68;;;3.65;;
28822;SDS011;15961;54.678;9.110;2023-08-01T05:21:50;6.63;;;3.00;;
28822;SDS011;15961;54.678;9.110;2023-08-01T05:24:15;5.82;;;2.70;;
28822;SDS011;15961;54.678;9.110;2023-08-01T05:26:40;5.57;;;3.08;;
28822;SDS011;15961;54.678;9.110;2023-08-01T05:29:05;6.25;;;3.10;;
28822;SDS011;15961;54.678;9.110;2023-08-01T05:31:31;7.07;;;2.97;;
28822;SDS011;15961;54.678;9.110;2023-08-01T05:33:56;4.32;;;2.63;;
28822;SDS011;15961;54.678;9.110;2023-08-01T05:36:21;6.18;;;2.70;;
28822;SDS011;15961;54.678;9.110;2023-08-01T05:38:47;4.85;;;2.35;;
28822;SDS011;15961;54.678;9.110;2023-08-01T05:41:12;4.25;;;2.45;;
28822;SDS011;15961;54.678;9.110;2023-08-01T05:43:37;3.85;;;2.30;;
28822;SDS011;15961;54.678;9.110;2023-08-01T05:46:03;5.10;;;2.55;;
28822;SDS011;15961;54.678;9.110;2023-08-01T05:48:28;5.10;;;2.70;;
28822;SDS011;15961;54.678;9.110;2023-08-01T05:50:53;5.05;;;2.38;;
28822;SDS011;15961;54.678;9.110;2023-08-01T05:53:20;5.10;;;2.33;;
28822;SDS011;15961;54.678;9.110;2023-08-01T05:55:45;4.60;;;2.67;;
28822;SDS011;15961;54.678;9.110;2023-08-01T05:58:11;5.32;;;2.63;;
28822;SDS011;15961;54.678;9.110;2023-08-01T06:00:36;7.13;;;3.03;;
28822;SDS011;15961;54.678;9.110;2023-08-01T06:03:01;6.30;;;2.83;;
28822;SDS011;15961;54.678;9.110;2023-08-01T06:05:27;5.80;;;2.72;;
28822;SDS011;15961;54.678;9.110;2023-08-01T06:07:53;7.07;;;3.47;;
28822;SDS011;15961;54.678;9.110;2023-08-01T06:10:18;4.65;;;2.53;;
28822;SDS011;15961;54.678;9.110;2023-08-01T06:12:43;4.10;;;2.47;;
28822;SDS011;15961;54.678;9.110;2023-08-01T06:15:09;6.38;;;2.42;;
28822;SDS011;15961;54.678;9.110;2023-08-01T06:17:34;6.85;;;3.00;;
28822;SDS011;15961;54.678;9.110;2023-08-01T06:20:02;5.75;;;2.53;;
28822;SDS011;15961;54.678;9.110;2023-08-01T06:22:30;6.63;;;2.55;;
28822;SDS011;15961;54.678;9.110;2023-08-01T06:24:55;5.00;;;2.72;;
28822;SDS011;15961;54.678;9.110;2023-08-01T06:27:21;4.93;;;2.55;;
28822;SDS011;15961;54.678;9.110;2023-08-01T06:29:46;7.18;;;2.60;;
28822;SDS011;15961;54.678;9.110;2023-08-01T06:32:11;5.50;;;2.88;;
28822;SDS011;15961;54.678;9.110;2023-08-01T06:34:36;7.35;;;2.75;;
28822;SDS011;15961;54.678;9.110;2023-08-01T06:37:02;4.97;;;2.38;;
28822;SDS011;15961;54.678;9.110;2023-08-01T06:39:28;6.32;;;3.13;;
28822;SDS011;15961;54.678;9.110;2023-08-01T06:41:54;4.88;;;2.60;;
28822;SDS011;15961;54.678;9.110;2023-08-01T06:44:19;6.25;;;3.03;;
28822;SDS011;15961;54.678;9.110;2023-08-01T06:46:44;4.95;;;2.88;;
28822;SDS011;15961;54.678;9.110;2023-08-01T06:49:10;5.30;;;2.83;;
28822;SDS011;15961;54.678;9.110;2023-08-01T06:51:35;5.63;;;3.00;;
28822;SDS011;15961;54.678;9.110;2023-08-01T06:54:00;5.05;;;2.45;;
28822;SDS011;15961;54.678;9.110;2023-08-01T06:56:26;5.15;;;2.65;;
28822;SDS011;15961;54.678;9.110;2023-08-01T06:58:51;5.55;;;3.08;;
28822;SDS011;15961;54.678;9.110;2023-08-01T07:01:16;8.73;;;3.08;;
28822;SDS011;15961;54.678;9.110;2023-08-01T07:03:41;5.03;;;2.47;;
28822;SDS011;15961;54.678;9.110;2023-08-01T07:06:07;5.22;;;2.72;;
28822;SDS011;15961;54.678;9.110;2023-08-01T07:08:32;6.82;;;2.92;;
28822;SDS011;15961;54.678;9.110;2023-08-01T07:10:58;7.53;;;3.15;;
28822;SDS011;15961;54.678;9.110;2023-08-01T07:13:24;6.28;;;2.53;;
28822;SDS011;15961;54.678;9.110;2023-08-01T07:15:50;8.68;;;2.92;;
28822;SDS011;15961;54.678;9.110;2023-08-01T07:18:15;5.40;;;2.55;;
28822;SDS011;15961;54.678;9.110;2023-08-01T07:20:41;8.18;;;3.03;;
28822;SDS011;15961;54.678;9.110;2023-08-01T07:23:06;6.35;;;2.97;;
28822;SDS011;15961;54.678;9.110;2023-08-01T07:25:31;6.30;;;2.88;;
28822;SDS011;15961;54.678;9.110;2023-08-01T07:27:57;6.07;;;2.90;;
28822;SDS011;15961;54.678;9.110;2023-08-01T07:30:22;6.50;;;2.92;;
28822;SDS011;15961;54.678;9.110;2023-08-01T07:32:48;6.72;;;3.03;;
28822;SDS011;15961;54.678;9.110;2023-08-01T07:35:13;6.15;;;3.88;;
28822;SDS011;15961;54.678;9.110;2023-08-01T07:37:38;5.97;;;2.92;;
28822;SDS011;15961;54.678;9.110;2023-08-01T07:40:07;8.10;;;2.83;;
28822;SDS011;15961;54.678;9.110;2023-08-01T07:42:33;8.18;;;3.00;;
28822;SDS011;15961;54.678;9.110;2023-08-01T07:44:58;10.68;;;2.90;;
28822;SDS011;15961;54.678;9.110;2023-08-01T07:47:23;8.82;;;2.67;;
28822;SDS011;15961;54.678;9.110;2023-08-01T07:49:49;6.60;;;2.80;;
28822;SDS011;15961;54.678;9.110;2023-08-01T07:52:15;6.25;;;2.80;;
28822;SDS011;15961;54.678;9.110;2023-08-01T07:54:40;5.57;;;3.00;;
28822;SDS011;15961;54.678;9.110;2023-08-01T07:57:05;6.63;;;2.40;;
28822;SDS011;15961;54.678;9.110;2023-08-01T07:59:31;8.55;;;2.55;;
28822;SDS011;15961;54.678;9.110;2023-08-01T08:01:56;5.45;;;2.67;;
28822;SDS011;15961;54.678;9.110;2023-08-01T08:04:21;6.30;;;2.40;;
28822;SDS011;15961;54.678;9.110;2023-08-01T08:06:46;7.68;;;2.40;;
28822;SDS011;15961;54.678;9.110;2023-08-01T08:09:12;5.53;;;2.33;;
28822;SDS011;15961;54.678;9.110;2023-08-01T08:11:37;5.60;;;2.63;;
28822;SDS011;15961;54.678;9.110;2023-08-01T08:14:02;6.00;;;2.03;;
28822;SDS011;15961;54.678;9.110;2023-08-01T08:16:28;6.13;;;2.00;;
28822;SDS011;15961;54.678;9.110;2023-08-01T08:18:53;4.80;;;2.03;;
28822;SDS011;15961;54.678;9.110;2023-08-01T08:21:19;5.95;;;2.28;;
28822;SDS011;15961;54.678;9.110;2023-08-01T08:23:44;8.88;;;2.30;;
28822;SDS011;15961;54.678;9.110;2023-08-01T08:26:09;7.80;;;3.00;;
28822;SDS011;15961;54.678;9.110;2023-08-01T08:28:34;2.90;;;1.83;;
28822;SDS011;15961;54.678;9.110;2023-08-01T08:31:03;4.78;;;2.30;;
28822;SDS011;15961;54.678;9.110;2023-08-01T08:33:29;3.15;;;1.75;;
28822;SDS011;15961;54.678;9.110;2023-08-01T08:35:55;6.40;;;2.22;;
28822;SDS011;15961;54.678;9.110;2023-08-01T08:38:21;3.55;;;1.80;;
28822;SDS011;15961;54.678;9.110;2023-08-01T08:40:55;4.13;;;2.38;;
28822;SDS011;15961;54.678;9.110;2023-08-01T08:43:26;4.20;;;1.92;;
28822;SDS011;15961;54.678;9.110;2023-08-01T08:45:53;4.72;;;2.03;;
28822;SDS011;15961;54.678;9.110;2023-08-01T08:48:21;4.82;;;1.63;;
28822;SDS011;15961;54.678;9.110;2023-08-01T08:50:47;3.75;;;2.05;;
28822;SDS011;15961;54.678;9.110;2023-08-01T08:53:13;2.72;;;2.10;;
28822;SDS011;15961;54.678;9.110;2023-08-01T08:55:39;4.18;;;1.90;;
28822;SDS011;15961;54.678;9.110;2023-08-01T08:58:05;3.50;;;1.70;;
28822;SDS011;15961;54.678;9.110;2023-08-01T09:00:30;3.30;;;1.98;;
28822;SDS011;15961;54.678;9.110;2023-08-01T09:02:56;4.35;;;1.60;;
28822;SDS011;15961;54.678;9.110;2023-08-01T09:05:22;5.07;;;1.70;;
28822;SDS011;15961;54.678;9.110;2023-08-01T09:10:20;1.60;;;1.30;;
28822;SDS011;15961;54.678;9.110;2023-08-01T09:12:46;4.03;;;1.70;;
28822;SDS011;15961;54.678;9.110;2023-08-01T09:15:11;2.63;;;1.52;;
28822;SDS011;15961;54.678;9.110;2023-08-01T09:17:47;4.35;;;1.90;;
28822;SDS011;15961;54.678;9.110;2023-08-01T09:20:13;5.10;;;1.67;;
28822;SDS011;15961;54.678;9.110;2023-08-01T09:22:42;4.38;;;1.90;;
28822;SDS011;15961;54.678;9.110;2023-08-01T09:25:08;9.52;;;2.42;;
28822;SDS011;15961;54.678;9.110;2023-08-01T09:27:34;5.43;;;2.20;;
28822;SDS011;15961;54.678;9.110;2023-08-01T09:30:12;3.15;;;2.17;;
28822;SDS011;15961;54.678;9.110;2023-08-01T09:32:40;3.97;;;1.92;;
28822;SDS011;15961;54.678;9.110;2023-08-01T09:35:16;2.65;;;1.58;;
28822;SDS011;15961;54.678;9.110;2023-08-01T09:37:42;3.55;;;1.63;;
28822;SDS011;15961;54.678;9.110;2023-08-01T09:40:10;2.00;;;1.23;;
28822;SDS011;15961;54.678;9.110;2023-08-01T09:42:43;3.40;;;1.63;;
28822;SDS011;15961;54.678;9.110;2023-08-01T09:45:16;3.78;;;1.98;;
28822;SDS011;15961;54.678;9.110;2023-08-01T09:47:42;4.07;;;1.90;;
28822;SDS011;15961;54.678;9.110;2023-08-01T09:50:11;3.88;;;1.83;;
28822;SDS011;15961;54.678;9.110;2023-08-01T09:52:39;2.88;;;1.63;;
28822;SDS011;15961;54.678;9.110;2023-08-01T09:55:05;4.03;;;1.65;;
28822;SDS011;15961;54.678;9.110;2023-08-01T09:57:30;4.53;;;2.30;;
28822;SDS011;15961;54.678;9.110;2023-08-01T09:59:57;3.78;;;2.00;;
28822;SDS011;15961;54.678;9.110;2023-08-01T10:02:26;3.45;;;2.08;;
28822;SDS011;15961;54.678;9.110;2023-08-01T10:04:54;5.40;;;2.03;;
28822;SDS011;15961;54.678;9.110;2023-08-01T10:07:25;3.95;;;1.80;;
28822;SDS011;15961;54.678;9.110;2023-08-01T10:09:52;3.80;;;1.92;;
28822;SDS011;15961;54.678;9.110;2023-08-01T10:12:19;4.95;;;2.00;;
28822;SDS011;15961;54.678;9.110;2023-08-01T10:14:44;4.93;;;2.13;;
28822;SDS011;15961;54.678;9.110;2023-08-01T10:17:10;4.45;;;1.70;;
28822;SDS011;15961;54.678;9.110;2023-08-01T10:19:36;2.83;;;1.20;;
28822;SDS011;15961;54.678;9.110;2023-08-01T10:22:02;3.10;;;1.42;;
28822;SDS011;15961;54.678;9.110;2023-08-01T10:24:28;2.55;;;1.50;;
28822;SDS011;15961;54.678;9.110;2023-08-01T10:26:54;1.90;;;1.35;;
28822;SDS011;15961;54.678;9.110;2023-08-01T10:29:19;4.40;;;1.55;;
28822;SDS011;15961;54.678;9.110;2023-08-01T10:31:51;2.75;;;1.40;;
28822;SDS011;15961;54.678;9.110;2023-08-01T10:34:17;3.80;;;1.33;;
28822;SDS011;15961;54.678;9.110;2023-08-01T10:36:52;3.90;;;1.60;;
28822;SDS011;15961;54.678;9.110;2023-08-01T10:39:22;3.58;;;1.35;;
28822;SDS011;15961;54.678;9.110;2023-08-01T10:41:56;6.07;;;1.45;;
28822;SDS011;15961;54.678;9.110;2023-08-01T10:44:23;3.10;;;1.52;;
28822;SDS011;15961;54.678;9.110;2023-08-01T10:46:49;4.03;;;1.40;;
28822;SDS011;15961;54.678;9.110;2023-08-01T10:49:18;1.67;;;1.20;;
28822;SDS011;15961;54.678;9.110;2023-08-01T10:51:44;6.47;;;1.70;;
28822;SDS011;15961;54.678;9.110;2023-08-01T10:56:49;2.72;;;1.40;;
28822;SDS011;15961;54.678;9.110;2023-08-01T10:59:15;4.32;;;2.25;;
28822;SDS011;15961;54.678;9.110;2023-08-01T11:01:51;1.95;;;1.30;;
28822;SDS011;15961;54.678;9.110;2023-08-01T11:04:18;4.13;;;1.52;;
28822;SDS011;15961;54.678;9.110;2023-08-01T11:06:48;3.63;;;1.70;;
28822;SDS011;15961;54.678;9.110;2023-08-01T11:09:24;4.60;;;1.70;;
28822;SDS011;15961;54.678;9.110;2023-08-01T11:11:52;3.95;;;1.67;;
28822;SDS011;15961;54.678;9.110;2023-08-01T11:14:21;3.63;;;1.77;;
28822;SDS011;15961;54.678;9.110;2023-08-01T11:16:48;7.40;;;2.03;;
28822;SDS011;15961;54.678;9.110;2023-08-01T11:19:21;3.97;;;1.98;;
28822;SDS011;15961;54.678;9.110;2023-08-01T11:21:48;4.53;;;1.92;;
28822;SDS011;15961;54.678;9.110;2023-08-01T11:24:14;8.50;;;2.28;;
28822;SDS011;15961;54.678;9.110;2023-08-01T11:26:40;3.97;;;1.42;;
28822;SDS011;15961;54.678;9.110;2023-08-01T11:29:06;6.03;;;1.80;;
28822;SDS011;15961;54.678;9.110;2023-08-01T11:31:32;4.75;;;2.08;;
28822;SDS011;15961;54.678;9.110;2023-08-01T11:33:57;6.47;;;2.25;;
28822;SDS011;15961;54.678;9.110;2023-08-01T11:36:26;4.88;;;1.80;;
28822;SDS011;15961;54.678;9.110;2023-08-01T11:38:52;4.00;;;2.13;;
28822;SDS011;15961;54.678;9.110;2023-08-01T11:41:21;4.95;;;2.15;;
28822;SDS011;15961;54.678;9.110;2023-08-01T11:43:47;5.50;;;2.13;;
28822;SDS011;15961;54.678;9.110;2023-08-01T11:46:12;6.55;;;3.38;;
28822;SDS011;15961;54.678;9.110;2023-08-01T11:48:37;6.45;;;2.40;;
28822;SDS011;15961;54.678;9.110;2023-08-01T11:51:03;5.43;;;2.10;;
28822;SDS011;15961;54.678;9.110;2023-08-01T11:53:29;4.43;;;2.10;;
28822;SDS011;15961;54.678;9.110;2023-08-01T11:55:55;4.55;;;2.30;;
28822;SDS011;15961;54.678;9.110;2023-08-01T11:58:31;5.65;;;1.90;;
28822;SDS011;15961;54.678;9.110;2023-08-01T12:01:09;8.57;;;2.20;;
28822;SDS011;15961;54.678;9.110;2023-08-01T12:03:42;4.45;;;1.88;;
28822;SDS011;15961;54.678;9.110;2023-08-01T12:06:11;7.53;;;1.80;;
28822;SDS011;15961;54.678;9.110;2023-08-01T12:08:38;5.70;;;1.83;;
28822;SDS011;15961;54.678;9.110;2023-08-01T12:11:03;5.97;;;1.73;;
28822;SDS011;15961;54.678;9.110;2023-08-01T12:13:29;3.75;;;1.52;;
28822;SDS011;15961;54.678;9.110;2023-08-01T12:15:55;3.55;;;1.63;;
28822;SDS011;15961;54.678;9.110;2023-08-01T12:18:22;8.25;;;1.77;;
28822;SDS011;15961;54.678;9.110;2023-08-01T12:20:48;6.47;;;2.45;;
28822;SDS011;15961;54.678;9.110;2023-08-01T12:23:13;5.60;;;2.13;;
28822;SDS011;15961;54.678;9.110;2023-08-01T12:25:38;4.18;;;1.55;;
28822;SDS011;15961;54.678;9.110;2023-08-01T12:28:04;6.45;;;1.50;;
28822;SDS011;15961;54.678;9.110;2023-08-01T12:30:29;7.55;;;1.98;;
28822;SDS011;15961;54.678;9.110;2023-08-01T12:32:55;4.63;;;1.83;;
28822;SDS011;15961;54.678;9.110;2023-08-01T12:35:20;4.78;;;1.70;;
28822;SDS011;15961;54.678;9.110;2023-08-01T12:37:45;4.10;;;1.70;;
28822;SDS011;15961;54.678;9.110;2023-08-01T12:40:12;5.07;;;1.90;;
28822;SDS011;15961;54.678;9.110;2023-08-01T12:42:37;3.85;;;2.10;;
28822;SDS011;15961;54.678;9.110;2023-08-01T12:45:02;5.00;;;1.77;;
28822;SDS011;15961;54.678;9.110;2023-08-01T12:47:28;4.32;;;2.00;;
28822;SDS011;15961;54.678;9.110;2023-08-01T12:49:53;10.25;;;2.55;;
28822;SDS011;15961;54.678;9.110;2023-08-01T12:52:22;6.88;;;2.60;;
28822;SDS011;15961;54.678;9.110;2023-08-01T12:54:51;8.57;;;2.20;;
28822;SDS011;15961;54.678;9.110;2023-08-01T12:57:16;4.10;;;1.70;;
28822;SDS011;15961;54.678;9.110;2023-08-01T12:59:44;4.97;;;1.65;;
28822;SDS011;15961;54.678;9.110;2023-08-01T13:02:10;2.30;;;1.73;;
28822;SDS011;15961;54.678;9.110;2023-08-01T13:04:35;2.95;;;1.73;;
28822;SDS011;15961;54.678;9.110;2023-08-01T13:07:00;3.88;;;1.88;;
28822;SDS011;15961;54.678;9.110;2023-08-01T13:09:26;5.50;;;1.70;;
28822;SDS011;15961;54.678;9.110;2023-08-01T13:11:51;5.40;;;1.42;;
28822;SDS011;15961;54.678;9.110;2023-08-01T13:14:16;5.03;;;1.50;;
28822;SDS011;15961;54.678;9.110;2023-08-01T13:16:42;5.28;;;1.20;;
28822;SDS011;15961;54.678;9.110;2023-08-01T13:19:07;2.33;;;1.10;;
28822;SDS011;15961;54.678;9.110;2023-08-01T13:21:32;5.32;;;1.45;;
28822;SDS011;15961;54.678;9.110;2023-08-01T13:23:59;4.28;;;1.33;;
28822;SDS011;15961;54.678;9.110;2023-08-01T13:26:24;5.97;;;1.13;;
28822;SDS011;15961;54.678;9.110;2023-08-01T13:28:50;7.40;;;1.60;;
28822;SDS011;15961;54.678;9.110;2023-08-01T13:31:15;3.40;;;1.30;;
28822;SDS011;15961;54.678;9.110;2023-08-01T13:33:40;5.00;;;1.50;;
28822;SDS011;15961;54.678;9.110;2023-08-01T13:36:06;3.55;;;1.30;;
28822;SDS011;15961;54.678;9.110;2023-08-01T13:38:31;2.60;;;1.40;;
28822;SDS011;15961;54.678;9.110;2023-08-01T13:41:00;2.17;;;1.50;;
28822;SDS011;15961;54.678;9.110;2023-08-01T13:43:26;4.32;;;1.70;;
28822;SDS011;15961;54.678;9.110;2023-08-01T13:45:51;5.78;;;1.83;;
28822;SDS011;15961;54.678;9.110;2023-08-01T13:48:17;4.03;;;1.38;;
28822;SDS011;15961;54.678;9.110;2023-08-01T13:50:43;3.35;;;1.70;;
28822;SDS011;15961;54.678;9.110;2023-08-01T13:53:08;4.25;;;1.42;;
28822;SDS011;15961;54.678;9.110;2023-08-01T13:55:37;4.82;;;1.67;;
28822;SDS011;15961;54.678;9.110;2023-08-01T13:58:02;3.78;;;1.50;;
28822;SDS011;15961;54.678;9.110;2023-08-01T14:00:27;4.45;;;1.55;;
28822;SDS011;15961;54.678;9.110;2023-08-01T14:02:53;7.20;;;1.70;;
28822;SDS011;15961;54.678;9.110;2023-08-01T14:05:18;3.88;;;1.63;;
28822;SDS011;15961;54.678;9.110;2023-08-01T14:07:43;4.82;;;1.63;;
28822;SDS011;15961;54.678;9.110;2023-08-01T14:10:09;5.75;;;1.75;;
28822;SDS011;15961;54.678;9.110;2023-08-01T14:12:34;3.58;;;1.50;;
28822;SDS011;15961;54.678;9.110;2023-08-01T14:14:59;3.45;;;1.58;;
28822;SDS011;15961;54.678;9.110;2023-08-01T14:17:25;3.25;;;2.22;;
28822;SDS011;15961;54.678;9.110;2023-08-01T14:19:50;10.90;;;2.17;;
28822;SDS011;15961;54.678;9.110;2023-08-01T14:22:16;6.18;;;1.70;;
28822;SDS011;15961;54.678;9.110;2023-08-01T14:24:41;3.97;;;1.80;;
28822;SDS011;15961;54.678;9.110;2023-08-01T14:27:07;5.95;;;1.88;;
28822;SDS011;15961;54.678;9.110;2023-08-01T14:29:33;6.43;;;1.70;;
28822;SDS011;15961;54.678;9.110;2023-08-01T14:31:58;3.40;;;1.73;;
28822;SDS011;15961;54.678;9.110;2023-08-01T14:34:23;5.10;;;2.05;;
28822;SDS011;15961;54.678;9.110;2023-08-01T14:36:49;6.50;;;2.00;;
28822;SDS011;15961;54.678;9.110;2023-08-01T14:39:14;3.30;;;1.67;;
28822;SDS011;15961;54.678;9.110;2023-08-01T14:41:39;5.38;;;1.65;;
28822;SDS011;15961;54.678;9.110;2023-08-01T14:44:04;4.15;;;1.85;;